Time,TemperatureF,DewpointF,PressureIn,WindDirection,WindDirectionDegrees,WindSpeedMPH,WindSpeedGustMPH,Humidity,HourlyPrecipIn,Conditions,Clouds,dailyrainin,SolarRadiationWatts/m^2,SoftwareType,DateUTC
2013-07-11 00:00:00,65.9,52.9,29.79,SW,216,0.0,-999.0,64,-99.99,,,0.11,0.0,cwc,2013-07-11 06:00:00,
2013-07-11 00:05:00,65.6,52.6,29.78,SW,216,0.0,-999.0,64,-99.99,,,0.00,0.0,cwc,2013-07-11 06:05:00,
2013-07-11 00:10:00,65.5,52.5,29.78,SW,216,0.0,-999.0,64,-99.99,,,0.00,0.0,cwc,2013-07-11 06:10:00,
2013-07-11 00:15:00,65.5,53.6,29.78,SW,216,0.0,-999.0,67,-99.99,,,0.00,0.0,cwc,2013-07-11 06:15:00,
2013-07-11 00:20:00,65.1,52.1,29.77,SW,216,3.0,-999.0,64,-99.99,,,0.00,0.0,cwc,2013-07-11 06:20:00,
2013-07-11 00:25:00,65.1,52.9,29.77,SW,215,0.0,-999.0,66,-99.99,,,0.00,0.0,cwc,2013-07-11 06:25:00,
2013-07-11 00:30:00,65.0,53.5,29.77,SW,215,0.0,-999.0,68,-99.99,,,0.00,0.0,cwc,2013-07-11 06:30:00,
2013-07-11 00:35:00,64.7,53.2,29.78,SW,216,0.0,-999.0,68,-99.99,,,0.00,0.0,cwc,2013-07-11 06:35:00,
2013-07-11 00:40:00,64.4,52.9,29.78,SW,216,0.0,-999.0,68,-99.99,,,0.00,0.0,cwc,2013-07-11 06:40:00,
2013-07-11 00:45:00,64.0,51.8,29.78,SW,215,2.0,-999.0,66,-99.99,,,0.00,0.0,cwc,2013-07-11 06:45:00,
2013-07-11 00:55:00,64.2,51.6,29.78,SW,217,0.0,-999.0,65,-99.99,,,0.00,0.0,cwc,2013-07-11 06:55:00,
2013-07-11 01:00:00,64.5,50.8,29.78,SW,217,0.0,-999.0,62,-99.99,,,0.00,0.0,cwc,2013-07-11 07:00:00,
2013-07-11 01:05:00,64.9,51.6,29.77,SW,217,0.0,-999.0,63,-99.99,,,0.00,0.0,cwc,2013-07-11 07:05:00,
2013-07-11 01:10:00,65.2,51.2,29.77,SW,217,1.0,-999.0,61,-99.99,,,0.00,0.0,cwc,2013-07-11 07:10:00,
2013-07-11 01:15:00,65.5,51.8,29.77,SW,217,0.0,-999.0,62,-99.99,,,0.00,0.0,cwc,2013-07-11 07:15:00,
2013-07-11 01:20:00,65.9,52.6,29.77,SW,217,0.0,-999.0,63,-99.99,,,0.00,0.0,cwc,2013-07-11 07:20:00,
2013-07-11 01:30:00,65.8,52.5,29.77,SW,217,0.0,-999.0,63,-99.99,,,0.00,0.0,cwc,2013-07-11 07:30:00,
2013-07-11 01:35:00,65.6,52.3,29.77,SW,217,0.0,-999.0,63,-99.99,,,0.00,0.0,cwc,2013-07-11 07:35:00,
2013-07-11 01:40:00,65.0,51.3,29.77,SW,217,0.0,-999.0,62,-99.99,,,0.00,0.0,cwc,2013-07-11 07:40:00,
2013-07-11 01:45:00,64.3,51.7,29.77,SW,217,0.0,-999.0,65,-99.99,,,0.00,0.0,cwc,2013-07-11 07:45:00,
2013-07-11 01:50:00,63.7,50.7,29.77,SW,217,0.0,-999.0,64,-99.99,,,0.00,0.0,cwc,2013-07-11 07:50:00,
2013-07-11 02:00:00,62.9,50.7,29.77,SW,217,0.0,-999.0,66,-99.99,,,0.00,0.0,cwc,2013-07-11 08:00:00,
2013-07-11 02:05:00,62.9,51.0,29.77,SW,217,0.0,-999.0,67,-99.99,,,0.00,0.0,cwc,2013-07-11 08:05:00,
2013-07-11 02:10:00,62.7,50.8,29.77,SW,217,0.0,-999.0,67,-99.99,,,0.00,0.0,cwc,2013-07-11 08:10:00,
2013-07-11 02:15:00,62.6,51.1,29.77,SW,217,0.0,-999.0,68,-99.99,,,0.00,0.0,cwc,2013-07-11 08:15:00,
2013-07-11 02:20:00,62.6,51.1,29.76,SW,217,0.0,-999.0,68,-99.99,,,0.00,0.0,cwc,2013-07-11 08:20:00,
2013-07-11 02:25:00,62.6,51.1,29.77,SW,217,1.0,-999.0,68,-99.99,,,0.00,0.0,cwc,2013-07-11 08:25:00,
2013-07-11 02:30:00,62.6,51.1,29.77,SW,217,0.0,-999.0,68,-99.99,,,0.00,0.0,cwc,2013-07-11 08:30:00,
2013-07-11 02:35:00,62.6,51.1,29.76,SW,217,0.0,-999.0,68,-99.99,,,0.00,0.0,cwc,2013-07-11 08:35:00,
2013-07-11 02:40:00,62.1,50.2,29.76,SW,217,3.0,-999.0,67,-99.99,,,0.00,0.0,cwc,2013-07-11 08:40:00,
2013-07-11 02:45:00,61.3,49.8,29.77,SW,217,3.0,-999.0,68,-99.99,,,0.00,0.0,cwc,2013-07-11 08:45:00,
2013-07-11 02:50:00,61.0,50.2,29.77,SW,217,0.0,-999.0,70,-99.99,,,0.00,0.0,cwc,2013-07-11 08:50:00,
2013-07-11 02:55:00,61.0,49.8,29.76,SW,217,0.0,-999.0,69,-99.99,,,0.00,0.0,cwc,2013-07-11 08:55:00,
2013-07-11 03:00:00,61.0,49.8,29.76,SW,217,1.0,-999.0,69,-99.99,,,0.00,0.0,cwc,2013-07-11 09:00:00,
2013-07-11 03:05:00,60.7,49.5,29.76,SW,217,0.0,-999.0,69,-99.99,,,0.00,0.0,cwc,2013-07-11 09:05:00,
2013-07-11 03:10:00,60.5,49.3,29.76,SW,217,0.0,-999.0,69,-99.99,,,0.00,0.0,cwc,2013-07-11 09:10:00,
2013-07-11 03:15:00,60.5,49.7,29.76,SW,217,0.0,-999.0,70,-99.99,,,0.00,0.0,cwc,2013-07-11 09:15:00,
2013-07-11 03:20:00,60.3,49.1,29.76,SW,217,0.0,-999.0,69,-99.99,,,0.00,0.0,cwc,2013-07-11 09:20:00,
2013-07-11 03:25:00,60.1,49.3,29.76,SW,217,0.0,-999.0,70,-99.99,,,0.00,0.0,cwc,2013-07-11 09:25:00,
2013-07-11 03:30:00,59.9,49.5,29.76,SW,217,0.0,-999.0,71,-99.99,,,0.00,0.0,cwc,2013-07-11 09:30:00,
2013-07-11 03:40:00,59.4,49.0,29.76,SW,217,0.0,-999.0,71,-99.99,,,0.00,0.0,cwc,2013-07-11 09:40:00,
2013-07-11 03:45:00,59.2,48.8,29.76,SW,217,0.0,-999.0,71,-99.99,,,0.00,0.0,cwc,2013-07-11 09:45:00,
2013-07-11 03:50:00,59.0,49.3,29.76,SW,217,0.0,-999.0,73,-99.99,,,0.00,0.0,cwc,2013-07-11 09:50:00,
2013-07-11 03:55:00,59.0,49.6,29.76,SW,217,0.0,-999.0,74,-99.99,,,0.00,0.0,cwc,2013-07-11 09:55:00,
2013-07-11 04:00:00,58.7,49.3,29.76,SW,217,1.0,-999.0,74,-99.99,,,0.00,0.0,cwc,2013-07-11 10:00:00,
2013-07-11 04:05:00,58.9,49.5,29.76,SW,217,0.0,-999.0,74,-99.99,,,0.00,0.0,cwc,2013-07-11 10:05:00,
2013-07-11 04:10:00,58.9,49.2,29.76,SW,217,1.0,-999.0,73,-99.99,,,0.00,0.0,cwc,2013-07-11 10:10:00,
2013-07-11 04:15:00,59.0,49.3,29.76,SW,217,2.0,-999.0,73,-99.99,,,0.00,0.0,cwc,2013-07-11 10:15:00,
2013-07-11 04:20:00,58.9,48.8,29.76,SW,217,0.0,-999.0,72,-99.99,,,0.00,0.0,cwc,2013-07-11 10:20:00,
2013-07-11 04:25:00,58.8,48.7,29.76,SW,217,0.0,-999.0,72,-99.99,,,0.00,0.0,cwc,2013-07-11 10:25:00,
2013-07-11 04:30:00,59.0,49.6,29.76,SW,217,0.0,-999.0,74,-99.99,,,0.00,0.0,cwc,2013-07-11 10:30:00,
2013-07-11 04:35:00,59.0,49.6,29.76,SW,217,0.0,-999.0,74,-99.99,,,0.00,0.0,cwc,2013-07-11 10:35:00,
2013-07-11 04:40:00,58.8,49.4,29.76,SW,217,0.0,-999.0,74,-99.99,,,0.00,0.0,cwc,2013-07-11 10:40:00,
2013-07-11 04:50:00,58.3,49.7,29.77,SW,217,0.0,-999.0,76,-99.99,,,0.00,0.0,cwc,2013-07-11 10:50:00,
2013-07-11 04:55:00,58.1,49.8,29.77,SW,217,0.0,-999.0,77,-99.99,,,0.00,0.0,cwc,2013-07-11 10:55:00,
2013-07-11 05:00:00,58.1,49.8,29.78,SW,217,0.0,-999.0,77,-99.99,,,0.00,0.0,cwc,2013-07-11 11:00:00,
2013-07-11 05:05:00,58.3,49.7,29.78,SW,217,1.0,-999.0,76,-99.99,,,0.00,0.0,cwc,2013-07-11 11:05:00,
2013-07-11 05:10:00,58.4,49.4,29.78,SW,217,0.0,-999.0,75,-99.99,,,0.00,0.0,cwc,2013-07-11 11:10:00,
2013-07-11 05:15:00,58.5,49.5,29.78,SW,217,0.0,-999.0,75,-99.99,,,0.00,0.0,cwc,2013-07-11 11:15:00,
2013-07-11 05:20:00,58.5,49.5,29.79,SW,217,0.0,-999.0,75,-99.99,,,0.00,0.0,cwc,2013-07-11 11:20:00,
2013-07-11 05:25:00,58.7,50.1,29.79,SW,218,0.0,-999.0,76,-99.99,,,0.00,0.0,cwc,2013-07-11 11:25:00,
2013-07-11 05:30:00,59.0,50.0,29.79,SW,218,0.0,-999.0,75,-99.99,,,0.00,0.0,cwc,2013-07-11 11:30:00,
2013-07-11 05:35:00,59.2,50.2,29.79,SW,218,2.0,-999.0,75,-99.99,,,0.00,0.0,cwc,2013-07-11 11:35:00,
2013-07-11 05:40:00,59.7,50.3,29.79,SW,224,2.0,-999.0,74,-99.99,,,0.00,0.0,cwc,2013-07-11 11:40:00,
2013-07-11 05:45:00,60.0,50.3,29.79,SW,224,0.0,-999.0,73,-99.99,,,0.00,0.0,cwc,2013-07-11 11:45:00,
2013-07-11 05:50:00,60.2,50.8,29.79,SW,223,0.0,-999.0,74,-99.99,,,0.00,0.0,cwc,2013-07-11 11:50:00,
2013-07-11 05:55:00,60.1,51.5,29.79,SW,224,2.0,-999.0,76,-99.99,,,0.00,5.0,cwc,2013-07-11 11:55:00,
2013-07-11 06:00:00,59.6,50.6,29.80,SW,224,0.0,-999.0,75,-99.99,,,0.00,7.0,cwc,2013-07-11 12:00:00,
2013-07-11 06:05:00,59.0,50.4,29.80,SW,223,0.0,-999.0,76,-99.99,,,0.00,12.0,cwc,2013-07-11 12:05:00,
2013-07-11 06:15:00,58.9,50.6,29.81,SW,224,0.0,-999.0,77,-99.99,,,0.00,25.0,cwc,2013-07-11 12:15:00,
2013-07-11 06:20:00,58.7,50.4,29.81,SW,224,0.0,-999.0,77,-99.99,,,0.00,32.0,cwc,2013-07-11 12:20:00,
2013-07-11 06:25:00,58.7,50.8,29.81,SW,223,1.0,-999.0,78,-99.99,,,0.00,35.0,cwc,2013-07-11 12:25:00,
2013-07-11 06:30:00,58.9,51.0,29.82,SW,224,0.0,-999.0,78,-99.99,,,0.00,39.0,cwc,2013-07-11 12:30:00,
2013-07-11 06:35:00,59.0,51.4,29.82,SW,224,0.0,-999.0,79,-99.99,,,0.00,44.0,cwc,2013-07-11 12:35:00,
2013-07-11 06:40:00,58.9,51.3,29.82,SW,223,0.0,-999.0,79,-99.99,,,0.00,49.0,cwc,2013-07-11 12:40:00,
2013-07-11 06:45:00,58.7,51.5,29.83,SW,223,0.0,-999.0,80,-99.99,,,0.00,54.0,cwc,2013-07-11 12:45:00,
2013-07-11 06:50:00,58.7,51.5,29.83,SW,224,0.0,-999.0,80,-99.99,,,0.00,58.0,cwc,2013-07-11 12:50:00,
2013-07-11 07:00:00,58.9,51.7,29.83,SW,224,0.0,-999.0,80,-99.99,,,0.00,84.0,cwc,2013-07-11 13:00:00,
2013-07-11 07:05:00,59.0,52.2,29.83,SW,223,0.0,-999.0,81,-99.99,,,0.00,79.0,cwc,2013-07-11 13:05:00,
2013-07-11 07:10:00,59.0,52.2,29.83,SW,223,0.0,-999.0,81,-99.99,,,0.00,100.0,cwc,2013-07-11 13:10:00,
2013-07-11 07:15:00,59.0,52.2,29.83,SW,224,0.0,-999.0,81,-99.99,,,0.00,93.0,cwc,2013-07-11 13:15:00,
2013-07-11 07:30:00,59.9,52.3,29.83,SW,224,0.0,-999.0,79,-99.99,,,0.00,156.0,cwc,2013-07-11 13:30:00,
2013-07-11 07:35:00,60.3,51.7,29.83,SW,224,1.0,-999.0,76,-99.99,,,0.00,195.0,cwc,2013-07-11 13:35:00,
2013-07-11 07:50:00,62.7,52.6,29.83,SW,224,0.0,-999.0,72,-99.99,,,0.00,258.0,cwc,2013-07-11 13:50:00,
2013-07-11 08:00:00,64.1,52.6,29.83,SW,223,0.0,-999.0,68,-99.99,,,0.00,243.0,cwc,2013-07-11 14:00:00,
2013-07-11 08:05:00,64.8,52.9,29.83,SW,224,0.0,-999.0,67,-99.99,,,0.00,271.0,cwc,2013-07-11 14:05:00,
2013-07-11 08:10:00,65.5,52.9,29.82,SW,224,0.0,-999.0,65,-99.99,,,0.00,306.0,cwc,2013-07-11 14:10:00,
2013-07-11 08:15:00,66.2,52.9,29.82,SW,223,1.0,-999.0,63,-99.99,,,0.00,343.0,cwc,2013-07-11 14:15:00,
2013-07-11 08:20:00,66.8,52.8,29.82,SW,224,0.0,-999.0,61,-99.99,,,0.00,346.0,cwc,2013-07-11 14:20:00,
2013-07-11 08:25:00,67.3,53.6,29.82,SW,224,0.0,-999.0,62,-99.99,,,0.00,329.0,cwc,2013-07-11 14:25:00,
2013-07-11 08:35:00,68.4,55.1,29.82,SW,223,1.0,-999.0,63,-99.99,,,0.00,374.0,cwc,2013-07-11 14:35:00,
2013-07-11 08:40:00,68.8,54.8,29.82,SW,226,4.0,-999.0,61,-99.99,,,0.00,408.0,cwc,2013-07-11 14:40:00,
2013-07-11 08:45:00,69.6,55.6,29.82,SSE,167,2.0,-999.0,61,-99.99,,,0.00,432.0,cwc,2013-07-11 14:45:00,
2013-07-11 08:50:00,71.1,56.0,29.82,SSE,161,7.0,-999.0,58,-99.99,,,0.00,455.0,cwc,2013-07-11 14:50:00,
2013-07-11 09:00:00,72.7,56.5,29.82,South,184,5.0,-999.0,55,-99.99,,,0.00,494.0,cwc,2013-07-11 15:00:00,
2013-07-11 09:05:00,73.3,57.1,29.81,SSE,161,6.0,-999.0,55,-99.99,,,0.00,529.0,cwc,2013-07-11 15:05:00,
2013-07-11 09:10:00,73.7,57.1,29.81,South,180,7.0,-999.0,54,-99.99,,,0.00,547.0,cwc,2013-07-11 15:10:00,
2013-07-11 09:20:00,74.1,57.2,29.81,SSW,213,10.0,-999.0,53,-99.99,,,0.00,613.0,cwc,2013-07-11 15:20:00,
2013-07-11 09:25:00,74.0,57.1,29.81,South,172,7.0,-999.0,53,-99.99,,,0.00,617.0,cwc,2013-07-11 15:25:00,
2013-07-11 09:30:00,74.0,57.1,29.80,SSE,165,2.0,-999.0,53,-99.99,,,0.00,417.0,cwc,2013-07-11 15:30:00,
2013-07-11 09:35:00,73.9,57.0,29.80,SW,228,8.0,-999.0,53,-99.99,,,0.00,355.0,cwc,2013-07-11 15:35:00,
2013-07-11 09:40:00,73.5,56.9,29.80,SSW,195,7.0,-999.0,54,-99.99,,,0.00,413.0,cwc,2013-07-11 15:40:00,
2013-07-11 09:50:00,73.5,57.3,29.80,South,191,7.0,-999.0,55,-99.99,,,0.00,306.0,cwc,2013-07-11 15:50:00,
2013-07-11 09:55:00,73.3,57.1,29.81,SSW,202,7.0,-999.0,55,-99.99,,,0.00,392.0,cwc,2013-07-11 15:55:00,
2013-07-11 10:05:00,73.2,57.4,29.80,SSW,198,7.0,-999.0,56,-99.99,,,0.00,299.0,cwc,2013-07-11 16:05:00,
2013-07-11 10:10:00,73.4,57.6,29.80,SSW,202,8.0,-999.0,56,-99.99,,,0.00,288.0,cwc,2013-07-11 16:10:00,
2013-07-11 10:15:00,73.5,57.7,29.80,SSW,192,8.0,-999.0,56,-99.99,,,0.00,318.0,cwc,2013-07-11 16:15:00,
2013-07-11 10:25:00,74.0,57.4,29.80,SSW,207,10.0,-999.0,54,-99.99,,,0.00,338.0,cwc,2013-07-11 16:25:00,
2013-07-11 10:30:00,74.2,57.3,29.80,WSW,237,6.0,-999.0,53,-99.99,,,0.00,385.0,cwc,2013-07-11 16:30:00,
2013-07-11 10:35:00,74.6,57.7,29.80,SSW,212,6.0,-999.0,53,-99.99,,,0.00,408.0,cwc,2013-07-11 16:35:00,
2013-07-11 10:45:00,75.4,57.4,29.80,SSW,195,14.0,-999.0,50,-99.99,,,0.00,399.0,cwc,2013-07-11 16:45:00,
2013-07-11 10:50:00,75.5,57.9,29.80,SSW,208,17.0,-999.0,51,-99.99,,,0.00,413.0,cwc,2013-07-11 16:50:00,
2013-07-11 10:55:00,75.7,57.3,29.80,West,262,7.0,-999.0,49,-99.99,,,0.00,411.0,cwc,2013-07-11 16:55:00,
2013-07-11 11:00:00,75.9,57.5,29.79,SW,225,5.0,-999.0,49,-99.99,,,0.00,413.0,cwc,2013-07-11 17:00:00,
2013-07-11 11:15:00,76.5,57.8,29.79,SW,215,7.0,-999.0,48,-99.99,,,0.00,654.0,cwc,2013-07-11 17:15:00,
2013-07-11 11:20:00,76.9,58.5,29.78,WSW,241,11.0,-999.0,49,-99.99,,,0.00,824.0,cwc,2013-07-11 17:20:00,
2013-07-11 11:25:00,77.4,58.7,29.78,SSE,161,7.0,-999.0,48,-99.99,,,0.00,851.0,cwc,2013-07-11 17:25:00,
2013-07-11 11:30:00,78.2,59.1,29.78,SSW,192,10.0,-999.0,47,-99.99,,,0.00,635.0,cwc,2013-07-11 17:30:00,
2013-07-11 11:35:00,78.4,58.6,29.78,South,186,6.0,-999.0,45,-99.99,,,0.00,501.0,cwc,2013-07-11 17:35:00,
2013-07-11 11:45:00,78.7,58.5,29.78,SSW,205,15.0,-999.0,44,-99.99,,,0.00,670.0,cwc,2013-07-11 17:45:00,
2013-07-11 11:50:00,78.7,58.5,29.77,SSE,167,4.0,-999.0,44,-99.99,,,0.00,649.0,cwc,2013-07-11 17:50:00,
2013-07-11 11:55:00,78.7,58.9,29.77,SSW,194,11.0,-999.0,45,-99.99,,,0.00,657.0,cwc,2013-07-11 17:55:00,
2013-07-11 12:00:00,78.9,58.7,29.77,South,172,4.0,-999.0,44,-99.99,,,0.00,722.0,cwc,2013-07-11 18:00:00,
2013-07-11 12:05:00,79.3,59.1,29.76,SSW,209,5.0,-999.0,44,-99.99,,,0.00,837.0,cwc,2013-07-11 18:05:00,
2013-07-11 12:10:00,79.5,59.3,29.76,SSW,211,6.0,-999.0,44,-99.99,,,0.00,863.0,cwc,2013-07-11 18:10:00,
2013-07-11 12:15:00,80.1,59.6,29.76,WSW,252,4.0,-999.0,43,-99.99,,,0.00,891.0,cwc,2013-07-11 18:15:00,
2013-07-11 12:25:00,81.1,59.9,29.75,ENE,75,0.0,-999.0,41,-99.99,,,0.00,867.0,cwc,2013-07-11 18:25:00,
2013-07-11 12:30:00,81.2,60.0,29.76,SSW,192,7.0,-999.0,41,-99.99,,,0.00,937.0,cwc,2013-07-11 18:30:00,
2013-07-11 12:35:00,81.2,60.0,29.75,SSW,211,2.0,-999.0,41,-99.99,,,0.00,654.0,cwc,2013-07-11 18:35:00,
2013-07-11 12:40:00,81.2,60.0,29.75,South,182,7.0,-999.0,41,-99.99,,,0.00,584.0,cwc,2013-07-11 18:40:00,
2013-07-11 12:45:00,81.4,60.2,29.75,SSW,210,7.0,-999.0,41,-99.99,,,0.00,1046.0,cwc,2013-07-11 18:45:00,
2013-07-11 12:55:00,82.2,60.6,29.73,SSW,206,0.0,-999.0,40,-99.99,,,0.00,1072.0,cwc,2013-07-11 18:55:00,
2013-07-11 13:00:00,82.4,60.8,29.73,WSW,237,2.0,-999.0,40,-99.99,,,0.00,853.0,cwc,2013-07-11 19:00:00,
2013-07-11 13:05:00,82.8,61.2,29.73,WSW,242,0.0,-999.0,40,-99.99,,,0.00,940.0,cwc,2013-07-11 19:05:00,
2013-07-11 13:15:00,83.2,61.2,29.71,East,101,3.0,-999.0,39,-99.99,,,0.00,867.0,cwc,2013-07-11 19:15:00,
2013-07-11 13:20:00,83.2,60.9,29.71,SW,227,4.0,-999.0,38,-99.99,,,0.00,807.0,cwc,2013-07-11 19:20:00,
2013-07-11 13:25:00,83.2,60.9,29.71,SSW,212,6.0,-999.0,38,-99.99,,,0.00,687.0,cwc,2013-07-11 19:25:00,
2013-07-11 13:30:00,83.2,60.9,29.71,SSW,205,7.0,-999.0,38,-99.99,,,0.00,666.0,cwc,2013-07-11 19:30:00,
2013-07-11 13:35:00,83.2,60.9,29.70,SSW,209,0.0,-999.0,38,-99.99,,,0.00,846.0,cwc,2013-07-11 19:35:00,
2013-07-11 13:40:00,83.7,61.0,29.70,SW,223,9.0,-999.0,37,-99.99,,,0.00,925.0,cwc,2013-07-11 19:40:00,
2013-07-11 13:50:00,84.4,61.4,29.69,West,259,0.0,-999.0,36,-99.99,,,0.00,1011.0,cwc,2013-07-11 19:50:00,
2013-07-11 13:55:00,84.9,61.9,29.69,ENE,57,3.0,-999.0,36,-99.99,,,0.00,830.0,cwc,2013-07-11 19:55:00,
2013-07-11 14:00:00,85.5,62.1,29.69,WNW,294,1.0,-999.0,35,-99.99,,,0.00,524.0,cwc,2013-07-11 20:00:00,
2013-07-11 14:05:00,85.8,62.0,29.68,West,259,0.0,-999.0,34,-99.99,,,0.00,1106.0,cwc,2013-07-11 20:05:00,
2013-07-11 14:10:00,86.1,62.0,29.69,SSW,198,11.0,-999.0,33,-99.99,,,0.00,1106.0,cwc,2013-07-11 20:10:00,
2013-07-11 14:15:00,86.5,62.4,29.68,SW,225,5.0,-999.0,33,-99.99,,,0.00,1162.0,cwc,2013-07-11 20:15:00,
2013-07-11 14:20:00,86.8,62.3,29.68,SSW,194,5.0,-999.0,32,-99.99,,,0.00,1100.0,cwc,2013-07-11 20:20:00,
2013-07-11 14:30:00,87.6,63.1,29.67,SE,128,0.0,-999.0,32,-99.99,,,0.00,900.0,cwc,2013-07-11 20:30:00,
2013-07-11 14:50:00,88.6,63.4,29.66,South,187,2.0,-999.0,30,-99.99,,,0.00,773.0,cwc,2013-07-11 20:50:00,
2013-07-11 14:55:00,88.5,63.3,29.66,SSW,207,9.0,-999.0,30,-99.99,,,0.00,954.0,cwc,2013-07-11 20:55:00,
2013-07-11 15:00:00,88.3,63.5,29.66,South,180,2.0,-999.0,31,-99.99,,,0.00,954.0,cwc,2013-07-11 21:00:00,
2013-07-11 15:05:00,88.1,63.3,29.66,SW,234,7.0,-999.0,31,-99.99,,,0.00,1065.0,cwc,2013-07-11 21:05:00,
2013-07-11 15:15:00,89.3,64.1,29.65,SSE,157,3.0,-999.0,30,-99.99,,,0.00,341.0,cwc,2013-07-11 21:15:00,
2013-07-11 15:25:00,89.0,63.1,29.64,SW,227,1.0,-999.0,28,-99.99,,,0.00,485.0,cwc,2013-07-11 21:25:00,
2013-07-11 15:30:00,89.2,63.6,29.64,South,171,5.0,-999.0,29,-99.99,,,0.00,960.0,cwc,2013-07-11 21:30:00,
2013-07-11 15:35:00,89.4,63.8,29.63,WNW,302,8.0,-999.0,29,-99.99,,,0.00,940.0,cwc,2013-07-11 21:35:00,
2013-07-11 15:40:00,89.8,63.9,29.63,SSW,192,7.0,-999.0,28,-99.99,,,0.00,896.0,cwc,2013-07-11 21:40:00,
2013-07-11 15:50:00,89.9,63.3,29.63,SSW,192,18.0,-999.0,26,-99.99,,,0.00,749.0,cwc,2013-07-11 21:50:00,
2013-07-11 15:55:00,89.9,63.3,29.63,South,178,9.0,-999.0,26,-99.99,,,0.00,805.0,cwc,2013-07-11 21:55:00,
2013-07-11 16:00:00,89.6,63.0,29.62,SSE,149,1.0,-999.0,26,-99.99,,,0.00,789.0,cwc,2013-07-11 22:00:00,
2013-07-11 16:05:00,89.7,63.1,29.62,SSE,148,0.0,-999.0,26,-99.99,,,0.00,761.0,cwc,2013-07-11 22:05:00,
2013-07-11 16:20:00,89.3,62.7,29.61,SSE,153,2.0,-999.0,26,-99.99,,,0.00,306.0,cwc,2013-07-11 22:20:00,
2013-07-11 16:25:00,89.1,62.5,29.62,SSE,163,6.0,-999.0,26,-99.99,,,0.00,294.0,cwc,2013-07-11 22:25:00,
2013-07-11 16:35:00,88.8,62.2,29.61,SSE,159,7.0,-999.0,26,-99.99,,,0.00,587.0,cwc,2013-07-11 22:35:00,
2013-07-11 16:40:00,89.2,62.6,29.61,South,178,7.0,-999.0,26,-99.99,,,0.00,742.0,cwc,2013-07-11 22:40:00,
2013-07-11 16:45:00,89.6,63.0,29.61,SSE,167,4.0,-999.0,26,-99.99,,,0.00,707.0,cwc,2013-07-11 22:45:00,
2013-07-11 16:50:00,89.8,63.2,29.60,NE,49,4.0,-999.0,26,-99.99,,,0.00,719.0,cwc,2013-07-11 22:50:00,
2013-07-11 16:55:00,90.0,63.4,29.60,SSE,150,2.0,-999.0,26,-99.99,,,0.00,726.0,cwc,2013-07-11 22:55:00,
2013-07-11 17:00:00,90.1,63.1,29.60,South,184,8.0,-999.0,25,-99.99,,,0.00,257.0,cwc,2013-07-11 23:00:00,
2013-07-11 17:05:00,89.7,62.7,29.60,South,179,2.0,-999.0,25,-99.99,,,0.00,373.0,cwc,2013-07-11 23:05:00,
2013-07-11 17:10:00,89.4,62.4,29.60,SSE,165,4.0,-999.0,25,-99.99,,,0.00,285.0,cwc,2013-07-11 23:10:00,
2013-07-11 17:25:00,88.0,61.0,29.60,South,186,12.0,-999.0,25,-99.99,,,0.00,283.0,cwc,2013-07-11 23:25:00,
2013-07-11 17:30:00,88.3,61.3,29.60,South,182,8.0,-999.0,25,-99.99,,,0.00,631.0,cwc,2013-07-11 23:30:00,
2013-07-11 17:35:00,88.5,61.5,29.60,SSW,200,11.0,-999.0,25,-99.99,,,0.00,213.0,cwc,2013-07-11 23:35:00,
2013-07-11 17:40:00,88.6,61.6,29.59,South,190,11.0,-999.0,25,-99.99,,,0.00,571.0,cwc,2013-07-11 23:40:00,
2013-07-11 17:55:00,89.6,63.0,29.59,SSE,167,7.0,-999.0,26,-99.99,,,0.00,503.0,cwc,2013-07-11 23:55:00,
2013-07-11 18:00:00,89.7,63.1,29.58,SSW,203,7.0,-999.0,26,-99.99,,,0.00,483.0,cwc,2013-07-12 00:00:00,
2013-07-11 18:05:00,89.5,63.2,29.59,South,186,4.0,-999.0,27,-99.99,,,0.00,468.0,cwc,2013-07-12 00:05:00,
2013-07-11 18:15:00,89.3,63.0,29.58,South,180,9.0,-999.0,27,-99.99,,,0.00,146.0,cwc,2013-07-12 00:15:00,
2013-07-11 18:25:00,88.5,62.2,29.58,South,178,15.0,-999.0,27,-99.99,,,0.00,374.0,cwc,2013-07-12 00:25:00,
2013-07-11 18:30:00,88.3,62.0,29.58,South,180,2.0,-999.0,27,-99.99,,,0.00,338.0,cwc,2013-07-12 00:30:00,
2013-07-11 18:35:00,88.3,62.4,29.58,South,190,15.0,-999.0,28,-99.99,,,0.00,123.0,cwc,2013-07-12 00:35:00,
2013-07-11 18:40:00,88.1,62.2,29.58,South,170,11.0,-999.0,28,-99.99,,,0.00,104.0,cwc,2013-07-12 00:40:00,
2013-07-11 18:45:00,87.9,62.0,29.58,South,177,7.0,-999.0,28,-99.99,,,0.00,97.0,cwc,2013-07-12 00:45:00,
2013-07-11 18:55:00,87.2,61.6,29.58,South,178,7.0,-999.0,29,-99.99,,,0.00,72.0,cwc,2013-07-12 00:55:00,
2013-07-11 19:00:00,87.0,61.4,29.59,South,184,8.0,-999.0,29,-99.99,,,0.00,62.0,cwc,2013-07-12 01:00:00,
2013-07-11 19:05:00,86.3,61.1,29.59,SSE,164,10.0,-999.0,30,-99.99,,,0.00,54.0,cwc,2013-07-12 01:05:00,
2013-07-11 19:10:00,85.6,61.1,29.59,SSE,156,10.0,-999.0,32,-99.99,,,0.00,53.0,cwc,2013-07-12 01:10:00,
2013-07-11 19:25:00,84.2,60.1,29.59,SSW,192,17.0,-999.0,33,-99.99,,,0.00,44.0,cwc,2013-07-12 01:25:00,
2013-07-11 19:30:00,83.9,59.8,29.59,South,175,4.0,-999.0,33,-99.99,,,0.00,42.0,cwc,2013-07-12 01:30:00,
2013-07-11 19:40:00,83.8,59.3,29.60,SSE,159,3.0,-999.0,32,-99.99,,,0.00,37.0,cwc,2013-07-12 01:40:00,
2013-07-11 19:45:00,83.7,59.2,29.59,South,187,10.0,-999.0,32,-99.99,,,0.00,33.0,cwc,2013-07-12 01:45:00,
2013-07-11 19:50:00,83.6,59.5,29.59,SSE,166,7.0,-999.0,33,-99.99,,,0.00,33.0,cwc,2013-07-12 01:50:00,
2013-07-11 19:55:00,83.6,59.5,29.60,South,182,10.0,-999.0,33,-99.99,,,0.00,25.0,cwc,2013-07-12 01:55:00,
2013-07-11 20:05:00,83.3,59.2,29.59,SE,144,6.0,-999.0,33,-99.99,,,0.00,19.0,cwc,2013-07-12 02:05:00,
2013-07-11 20:15:00,83.1,59.0,29.60,South,177,7.0,-999.0,33,-99.99,,,0.00,5.0,cwc,2013-07-12 02:15:00,
2013-07-11 20:20:00,82.9,58.8,29.60,SSE,167,5.0,-999.0,33,-99.99,,,0.00,0.0,cwc,2013-07-12 02:20:00,
2013-07-11 20:35:00,82.5,58.7,29.60,South,179,3.0,-999.0,34,-99.99,,,0.00,0.0,cwc,2013-07-12 02:35:00,
2013-07-11 20:50:00,82.1,58.3,29.61,SSE,163,6.0,-999.0,34,-99.99,,,0.00,0.0,cwc,2013-07-12 02:50:00,
2013-07-11 21:00:00,82.2,58.1,29.61,SSE,168,11.0,-999.0,33,-99.99,,,0.00,0.0,cwc,2013-07-12 03:00:00,
2013-07-11 21:05:00,82.4,58.3,29.61,South,191,13.0,-999.0,33,-99.99,,,0.00,0.0,cwc,2013-07-12 03:05:00,
2013-07-11 21:10:00,82.5,58.4,29.61,SSE,163,6.0,-999.0,33,-99.99,,,0.00,0.0,cwc,2013-07-12 03:10:00,
2013-07-11 21:15:00,82.4,58.3,29.62,SE,138,3.0,-999.0,33,-99.99,,,0.00,0.0,cwc,2013-07-12 03:15:00,
2013-07-11 21:20:00,82.2,58.4,29.62,ESE,123,2.0,-999.0,34,-99.99,,,0.00,0.0,cwc,2013-07-12 03:20:00,
2013-07-11 21:25:00,82.0,58.2,29.62,SSE,156,1.0,-999.0,34,-99.99,,,0.00,0.0,cwc,2013-07-12 03:25:00,
2013-07-11 21:45:00,81.0,58.0,29.63,SE,133,0.0,-999.0,36,-99.99,,,0.00,0.0,cwc,2013-07-12 03:45:00,
2013-07-11 21:50:00,80.9,57.9,29.63,SSE,149,1.0,-999.0,36,-99.99,,,0.00,0.0,cwc,2013-07-12 03:50:00,
2013-07-11 21:55:00,80.7,57.7,29.64,SSE,149,1.0,-999.0,36,-99.99,,,0.00,0.0,cwc,2013-07-12 03:55:00,
2013-07-11 22:00:00,80.5,57.8,29.64,SSE,150,1.0,-999.0,37,-99.99,,,0.00,0.0,cwc,2013-07-12 04:00:00,
2013-07-11 22:05:00,80.2,57.5,29.64,SSE,150,0.0,-999.0,37,-99.99,,,0.00,0.0,cwc,2013-07-12 04:05:00,
2013-07-11 22:10:00,80.1,57.4,29.64,SSE,150,1.0,-999.0,37,-99.99,,,0.00,0.0,cwc,2013-07-12 04:10:00,
2013-07-11 22:15:00,79.9,57.2,29.64,SSE,152,2.0,-999.0,37,-99.99,,,0.00,0.0,cwc,2013-07-12 04:15:00,
2013-07-11 22:20:00,79.7,57.4,29.64,SSE,152,1.0,-999.0,38,-99.99,,,0.00,0.0,cwc,2013-07-12 04:20:00,
2013-07-11 22:25:00,79.5,57.2,29.64,SSE,153,1.0,-999.0,38,-99.99,,,0.00,0.0,cwc,2013-07-12 04:25:00,
2013-07-11 22:30:00,79.3,57.3,29.64,SSE,150,1.0,-999.0,39,-99.99,,,0.00,0.0,cwc,2013-07-12 04:30:00,
2013-07-11 22:35:00,79.2,57.2,29.64,SSE,148,2.0,-999.0,39,-99.99,,,0.00,0.0,cwc,2013-07-12 04:35:00,
2013-07-11 22:40:00,79.1,57.5,29.65,SSE,148,0.0,-999.0,40,-99.99,,,0.00,0.0,cwc,2013-07-12 04:40:00,
2013-07-11 22:45:00,78.9,57.3,29.65,SSE,148,2.0,-999.0,40,-99.99,,,0.00,0.0,cwc,2013-07-12 04:45:00,
2013-07-11 22:50:00,78.7,57.5,29.65,SSE,148,0.0,-999.0,41,-99.99,,,0.00,0.0,cwc,2013-07-12 04:50:00,
2013-07-11 23:00:00,78.6,57.4,29.65,SSE,150,1.0,-999.0,41,-99.99,,,0.00,0.0,cwc,2013-07-12 05:00:00,
2013-07-11 23:05:00,78.4,57.2,29.65,SSE,152,3.0,-999.0,41,-99.99,,,0.00,0.0,cwc,2013-07-12 05:05:00,
2013-07-11 23:10:00,78.3,57.1,29.65,SSE,152,1.0,-999.0,41,-99.99,,,0.00,0.0,cwc,2013-07-12 05:10:00,
2013-07-11 23:15:00,78.1,57.2,29.65,SSE,153,3.0,-999.0,42,-99.99,,,0.00,0.0,cwc,2013-07-12 05:15:00,
2013-07-11 23:20:00,78.0,57.1,29.66,SSE,168,1.0,-999.0,42,-99.99,,,0.00,0.0,cwc,2013-07-12 05:20:00,
2013-07-11 23:25:00,78.0,57.1,29.66,SSE,167,2.0,-999.0,42,-99.99,,,0.00,0.0,cwc,2013-07-12 05:25:00,
2013-07-11 23:30:00,77.9,57.0,29.66,SSE,166,2.0,-999.0,42,-99.99,,,0.00,0.0,cwc,2013-07-12 05:30:00,
2013-07-11 23:35:00,77.9,57.0,29.66,SSE,162,4.0,-999.0,42,-99.99,,,0.00,0.0,cwc,2013-07-12 05:35:00,
2013-07-11 23:40:00,77.9,57.0,29.66,SSW,194,8.0,-999.0,42,-99.99,,,0.00,0.0,cwc,2013-07-12 05:40:00,
2013-07-11 23:45:00,78.0,57.1,29.66,SW,215,7.0,-999.0,42,-99.99,,,0.00,0.0,cwc,2013-07-12 05:45:00,
2013-07-11 23:50:00,78.2,57.3,29.66,SSE,167,8.0,-999.0,42,-99.99,,,0.00,0.0,cwc,2013-07-12 05:50:00,
2013-07-11 23:55:00,78.0,57.1,29.67,SSW,198,4.0,-999.0,42,-99.99,,,0.00,0.0,cwc,2013-07-12 05:55:00,